Flight Track Log - Related Links

Times and Time Zones

All times are in EDT time to prevent confusion due to time zone crossing. See the UAL1177 flight status page for this flight to view local times or setup timezone preferences in your user account.

Time Position Orientation Groundspeed Altitude Reporting Facility
EDT Latitude Longitude Course Direction KTS MPH feet Rate Location/Type
Mon 02:29:05 AM 33.9333 -118.4506 90° East 197 227 1,300  Level Los Angeles Center
Mon 02:30:06 AM 33.8950 -118.5089 232° Southwest 235 270 3,100 1,869 Climbing Los Angeles Center
Mon 02:31:00 AM 33.7707 -118.6276 132° Southeast  Level FlightAware Approximate
Mon 02:31:07 AM 33.8386 -118.5600 217° Southwest 273 314 5,100  Level Los Angeles Center
Mon 02:32:00 AM 33.6871 -118.5214 134° Southeast  Level FlightAware Approximate
Mon 02:32:07 AM 33.7625 -118.5361 165° South 281 323 7,500  Level Los Angeles Center
Mon 02:33:00 AM 33.6505 -118.3844 121° Southeast  Level FlightAware Approximate
Mon 02:33:08 AM 33.7033 -118.4825 143° Southeast 296 341 9,600  Level Los Angeles Center
Mon 02:34:00 AM 33.6333 -118.2440 90° East  Level FlightAware Approximate
Mon 02:34:09 AM 33.6828 -118.3825 104° East 310 357 10,800  Level Los Angeles Center
Mon 02:35:10 AM 33.7092 -118.2744 74° East 353 406 12,800 2,083 Climbing Los Angeles Center
Mon 02:36:10 AM 33.7539 -118.1431 68° East 361 415 15,000 2,115 Climbing Los Angeles Center
Mon 02:37:12 AM 33.8078 -118.0319 60° Northeast 397 457 17,100 1,967 Climbing Los Angeles Center
Mon 02:38:12 AM 33.8961 -117.9531 37° Northeast 402 463 19,000 1,950 Climbing Los Angeles Center
Mon 02:39:12 AM 33.9853 -117.8722 37° Northeast 404 465 21,000 1,835 Climbing Los Angeles Center
Mon 02:40:13 AM 34.0783 -117.7875 37° Northeast 417 480 22,700 1,279 Climbing Los Angeles Center
Mon 02:41:14 AM 34.1622 -117.6797 47° Northeast 443 510 23,600 1,180 Climbing Los Angeles Center
Mon 02:42:15 AM 34.2461 -117.5642 49° Northeast 455 524 25,100 1,339 Climbing Los Angeles Center
Mon 02:43:15 AM 34.3328 -117.4486 48° Northeast 461 531 26,300 1,190 Climbing Los Angeles Center
Mon 02:44:16 AM 34.4231 -117.3228 49° Northeast 472 543 27,500 1,230 Climbing Los Angeles Center
Mon 02:45:17 AM 34.5103 -117.2003 49° Northeast 480 552 28,800 1,190 Climbing Los Angeles Center
Mon 02:46:17 AM 34.5992 -117.0808 48° Northeast 481 554 29,900 1,091 Climbing Los Angeles Center
Mon 02:47:18 AM 34.6878 -116.9589 49° Northeast 483 556 31,000 1,180 Climbing Los Angeles Center
Mon 02:48:19 AM 34.7747 -116.8367 49° Northeast 481 554 32,300 1,279 Climbing Los Angeles Center
Mon 02:49:20 AM 34.8619 -116.7153 49° Northeast 478 550 33,600 1,180 Climbing Los Angeles Center
Mon 02:50:21 AM 34.9478 -116.5958 49° Northeast 470 541 34,700 694 Climbing Los Angeles Center
Mon 02:51:21 AM 35.0550 -116.4589 46° Northeast 468 539 35,000 149 Climbing Los Angeles Center
Mon 02:52:22 AM 35.1464 -116.3442 46° Northeast 471 542 35,000  Level Los Angeles Center
Mon 02:53:22 AM 35.2389 -116.2294 45° Northeast 475 547 35,000  Level Los Angeles Center
Mon 02:54:23 AM 35.3292 -116.1150 46° Northeast 471 542 35,000  Level Los Angeles Center
Mon 02:55:24 AM 35.4197 -115.9997 46° Northeast 470 541 35,000  Level Los Angeles Center
Mon 02:56:24 AM 35.5156 -115.8806 45° Northeast 471 542 35,000  Level Los Angeles Center
Mon 02:57:25 AM 35.6056 -115.7675 46° Northeast 464 534 35,000  Level Los Angeles Center
Mon 02:58:26 AM 35.6942 -115.6544 46° Northeast 462 532 35,000  Level Los Angeles Center
Mon 02:59:26 AM 35.7831 -115.5408 46° Northeast 463 533 35,000  Level Los Angeles Center
Mon 03:00:27 AM 35.8728 -115.4258 46° Northeast 467 537 35,000  Level Los Angeles Center
Mon 03:01:28 AM 35.9622 -115.3111 46° Northeast 468 539 35,000  Level Los Angeles Center
Mon 03:02:28 AM 36.0500 -115.1958 47° Northeast 465 535 35,000  Level Los Angeles Center
Mon 03:03:29 AM 36.1119 -115.0522 62° Northeast 479 551 35,000  Level Los Angeles Center
Mon 03:04:30 AM 36.1594 -114.8964 69° East 485 558 35,000  Level Los Angeles Center
Mon 03:05:30 AM 36.2075 -114.7422 69° East 483 556 35,000  Level Los Angeles Center
Mon 03:06:31 AM 36.2642 -114.5547 69° East 485 558 35,000  Level Los Angeles Center
Mon 03:07:31 AM 36.3117 -114.3994 69° East 484 557 35,000  Level Los Angeles Center
Mon 03:08:32 AM 36.3586 -114.2447 69° East 481 554 35,000  Level Los Angeles Center
Mon 03:09:33 AM 36.4053 -114.0917 69° East 477 549 35,000  Level Los Angeles Center
Mon 03:10:33 AM 36.4503 -113.9389 70° East 473 544 35,000  Level Los Angeles Center
Mon 03:11:34 AM 36.4947 -113.7856 70° East 473 544 35,000  Level Los Angeles Center
Mon 03:12:34 AM 36.5336 -113.6531 70° East 471 542 35,000  Level Los Angeles Center
Mon 03:13:35 AM 36.5797 -113.4989 70° East 475 547 35,000 -545 Level Los Angeles Center
Mon 03:14:35 AM 36.6347 -113.3111 70° East 482 555 33,900 -992 Descending Los Angeles Center
Mon 03:15:36 AM 36.6806 -113.1525 70° East 488 562 33,000 -446 Descending Los Angeles Center
Mon 03:16:36 AM 36.7256 -112.9947 70° East 486 559 33,000  Level Los Angeles Center
Mon 03:17:37 AM 36.7711 -112.8381 70° East 484 557 33,000  Level Los Angeles Center
Mon 03:18:37 AM 36.8156 -112.6808 71° East 484 557 33,000  Level Los Angeles Center
Mon 03:19:38 AM 36.8608 -112.5239 70° East 484 557 33,000  Level Los Angeles Center
Mon 03:20:39 AM 36.9050 -112.3639 71° East 489 563 33,000  Level Los Angeles Center
Mon 03:21:39 AM 36.9500 -112.2044 71° East 490 564 33,000  Level Los Angeles Center
Mon 03:22:09 AM 36.9769 -112.1083 71° East 493 567 33,000  Level Denver Center
Mon 03:23:09 AM 37.0228 -111.9489 70° East 491 565 33,000  Level Denver Center
Mon 03:24:10 AM 37.0672 -111.7867 71° East 495 570 33,000  Level Denver Center
Mon 03:25:22 AM 37.1139 -111.6256 70° East 495 570 33,000  Level Denver Center
Mon 03:26:23 AM 37.1625 -111.4317 72° East 491 565 33,000  Level Denver Center
Mon 03:27:23 AM 37.2075 -111.2681 71° East 497 572 33,000  Level Denver Center
Mon 03:28:24 AM 37.2517 -111.1036 71° East 501 577 33,000  Level Denver Center
Mon 03:29:24 AM 37.2950 -110.9389 72° East 499 574 33,000  Level Denver Center
Mon 03:30:24 AM 37.3389 -110.7722 72° East 503 579 33,000  Level Denver Center
Mon 03:31:25 AM 37.3828 -110.6081 71° East 500 575 33,000  Level Denver Center
Mon 03:32:25 AM 37.4267 -110.4417 72° East 503 579 33,000  Level Denver Center
Mon 03:33:26 AM 37.4692 -110.2769 72° East 498 573 33,000  Level Denver Center
Mon 03:34:26 AM 37.5103 -110.1147 72° East 501 577 33,000  Level Denver Center
Mon 03:35:27 AM 37.5592 -109.9281 72° East 501 577 33,000  Level Denver Center
Mon 03:36:27 AM 37.5994 -109.7681 72° East 501 577 33,000  Level Denver Center
Mon 03:37:28 AM 37.6397 -109.6072 72° East 502 578 33,000  Level Denver Center
Mon 03:38:28 AM 37.6875 -109.4194 72° East 503 579 33,000  Level Denver Center
Mon 03:39:29 AM 37.7283 -109.2575 72° East 505 581 33,000  Level Denver Center
Mon 03:40:29 AM 37.7694 -109.0944 72° East 507 583 33,000  Level Denver Center
Mon 03:41:30 AM 37.8100 -108.9294 73° East 511 588 33,000  Level Denver Center
Mon 03:42:30 AM 37.8767 -108.7522 64° Northeast 498 573 33,000  Level Denver Center
Mon 03:43:31 AM 37.9342 -108.5972 65° Northeast 503 579 33,000  Level Denver Center
Mon 03:44:31 AM 37.9917 -108.4419 65° Northeast 505 581 33,000  Level Denver Center
Mon 03:45:31 AM 38.0594 -108.2619 64° Northeast 507 583 33,000  Level Denver Center
Mon 03:46:32 AM 38.1106 -108.1178 66° East 510 587 33,000  Level Denver Center
Mon 03:47:32 AM 38.1781 -107.9353 65° Northeast 513 590 33,000  Level Denver Center
Mon 03:48:33 AM 38.2356 -107.7803 65° Northeast 509 586 33,000  Level Denver Center
Mon 03:49:33 AM 38.2931 -107.6217 65° Northeast 514 592 33,000  Level Denver Center
Mon 03:50:34 AM 38.3594 -107.4369 65° Northeast 515 593 33,000  Level Denver Center
Mon 03:51:34 AM 38.4156 -107.2794 66° East 510 587 33,000  Level Denver Center
Mon 03:52:35 AM 38.4686 -107.1344 65° Northeast 510 587 33,000  Level Denver Center
Mon 03:53:35 AM 38.5267 -106.9692 66° East 509 586 33,000  Level Denver Center
Mon 03:54:36 AM 38.5847 -106.8019 66° East 517 595 33,000  Level Denver Center
Mon 03:55:36 AM 38.6558 -106.6019 65° Northeast 517 595 33,000  Level Denver Center
Mon 03:56:37 AM 38.7153 -106.4286 66° East 520 598 33,000  Level Denver Center
Mon 03:57:37 AM 38.7725 -106.2636 66° East 521 600 33,000  Level Denver Center
Mon 03:58:37 AM 38.8244 -106.1122 66° East 518 596 33,000  Level Denver Center
Mon 03:59:38 AM 38.8828 -105.9425 66° East 517 595 33,000  Level Denver Center
Mon 04:00:38 AM 38.9406 -105.7728 66° East 516 594 33,000  Level Denver Center
Mon 04:01:39 AM 38.9986 -105.6022 66° East 517 595 33,000  Level Denver Center
Mon 04:02:39 AM 39.0558 -105.4342 66° East 512 589 33,000  Level Denver Center
Mon 04:03:40 AM 39.1131 -105.2611 67° East 518 596 33,000  Level Denver Center
Mon 04:04:40 AM 39.1714 -105.0897 66° East 520 598 33,000  Level Denver Center
Mon 04:05:41 AM 39.2281 -104.9169 67° East 521 600 33,000  Level Denver Center
Mon 04:06:41 AM 39.2847 -104.7456 67° East 519 597 33,000  Level Denver Center
Mon 04:07:41 AM 39.3414 -104.5722 67° East 525 604 33,000  Level Denver Center
Mon 04:08:42 AM 39.3975 -104.3981 67° East 527 606 33,000  Level Denver Center
Mon 04:09:42 AM 39.4633 -104.1919 67° East 531 611 33,000  Level Denver Center
Mon 04:10:43 AM 39.5197 -104.0156 67° East 529 609 33,000  Level Denver Center
Mon 04:11:43 AM 39.5767 -103.8378 67° East 532 612 33,000  Level Denver Center
Mon 04:12:43 AM 39.6244 -103.6889 67° East 530 610 33,000  Level Denver Center
Mon 04:13:44 AM 39.6800 -103.5108 68° East 531 611 33,000  Level Denver Center
Mon 04:14:44 AM 39.7361 -103.3342 68° East 526 605 33,000  Level Denver Center
Mon 04:15:45 AM 39.7897 -103.1567 68° East 522 601 33,000  Level Denver Center
Mon 04:16:45 AM 39.8450 -102.9800 68° East 524 603 33,000  Level Denver Center
Mon 04:17:45 AM 39.8992 -102.8022 68° East 523 602 33,000  Level Denver Center
Mon 04:18:46 AM 39.9583 -102.6103 68° East 521 600 33,000  Level Denver Center
Mon 04:19:46 AM 40.0089 -102.4439 68° East 516 594 33,000  Level Denver Center
Mon 04:20:47 AM 40.0575 -102.2775 69° East 514 592 33,000  Level Denver Center
Mon 04:21:47 AM 40.1150 -102.0864 68° East 509 586 33,000  Level Denver Center
Mon 04:22:47 AM 40.1636 -101.9253 68° East 500 575 33,000  Level Denver Center
Mon 04:23:48 AM 40.2108 -101.7653 69° East 495 570 33,000  Level Denver Center
Mon 04:24:48 AM 40.2642 -101.5817 69° East 487 560 33,000  Level Denver Center
Mon 04:25:48 AM 40.3111 -101.4250 69° East 484 557 33,000  Level Denver Center
Mon 04:26:49 AM 40.3556 -101.2672 70° East 484 557 33,000  Level Denver Center
Mon 04:27:49 AM 40.4083 -101.0847 69° East 481 554 33,000  Level Denver Center
Mon 04:28:49 AM 40.4528 -100.9264 70° East 485 558 33,000  Level Denver Center
Mon 04:29:50 AM 40.5081 -100.7775 64° Northeast 480 552 33,000  Level Denver Center
Mon 04:30:50 AM 40.5733 -100.6025 64° Northeast 482 555 33,000  Level Denver Center
Mon 04:31:50 AM 40.6192 -100.4764 64° Northeast 485 558 33,000  Level Denver Center
Mon 04:32:51 AM 40.6856 -100.2992 64° Northeast 487 560 33,000  Level Denver Center
Mon 04:33:51 AM 40.7503 -100.1194 65° Northeast 488 562 33,000  Level Denver Center
Mon 04:34:51 AM 40.8064 -99.9678 64° Northeast 484 557 33,000 545 Level Denver Center
Mon 04:35:52 AM 40.8681 -99.7972 64° Northeast 485 558 34,100 992 Climbing Denver Center
Mon 04:36:52 AM 40.9264 -99.6375 64° Northeast 484 557 35,000 450 Climbing Denver Center
Mon 04:37:52 AM 40.9836 -99.4783 64° Northeast 479 551 35,000  Level Denver Center
Mon 04:38:53 AM 41.0406 -99.3167 65° Northeast 482 555 35,000  Level Denver Center
Mon 04:39:53 AM 41.0983 -99.1522 65° Northeast 488 562 35,000  Level Denver Center
Mon 04:40:30 AM 41.1231 -99.0836 64° Northeast 488 562 35,000  Level Minneapolis Center
Mon 04:40:53 AM 41.1547 -98.9908 66° East 490 564 35,000  Level Denver Center
Mon 04:41:53 AM 41.2094 -98.8325 65° Northeast 492 566 35,000  Level Denver Center
Mon 04:42:43 AM 41.2619 -98.6842 65° Northeast 495 570 35,000  Level Minneapolis Center
Mon 04:43:43 AM 41.3189 -98.5169 66° East 497 572 35,000  Level Minneapolis Center
Mon 04:44:44 AM 41.3681 -98.3750 65° Northeast 494 568 35,000  Level Minneapolis Center
Mon 04:45:44 AM 41.4236 -98.2081 66° East 493 567 35,000  Level Minneapolis Center
Mon 04:46:44 AM 41.4856 -98.0169 67° East 492 566 35,000  Level Minneapolis Center
Mon 04:47:45 AM 41.5389 -97.8514 67° East 488 562 35,000  Level Minneapolis Center
Mon 04:48:45 AM 41.5928 -97.6833 67° East 490 564 35,000  Level Minneapolis Center
Mon 04:49:45 AM 41.6469 -97.5167 66° East 489 563 35,000  Level Minneapolis Center
Mon 04:50:46 AM 41.7000 -97.3494 67° East 488 562 35,000  Level Minneapolis Center
Mon 04:51:46 AM 41.7525 -97.1817 67° East 488 562 35,000  Level Minneapolis Center
Mon 04:52:46 AM 41.8053 -97.0139 67° East 487 560 35,000  Level Minneapolis Center
Mon 04:53:47 AM 41.8578 -96.8456 67° East 487 560 35,000  Level Minneapolis Center
Mon 04:54:47 AM 41.9094 -96.6775 68° East 486 559 35,000  Level Minneapolis Center
Mon 04:55:47 AM 41.9608 -96.5086 68° East 487 560 35,000  Level Minneapolis Center
Mon 04:56:48 AM 42.0125 -96.3394 68° East 486 559 35,000  Level Minneapolis Center
Mon 04:57:48 AM 42.0639 -96.1703 68° East 486 559 35,000  Level Minneapolis Center
Mon 04:58:48 AM 42.1161 -96.0011 67° East 486 559 35,000  Level Minneapolis Center
Mon 04:59:49 AM 42.1664 -95.8294 68° East 488 562 35,000  Level Minneapolis Center
Mon 05:00:49 AM 42.2183 -95.6583 68° East 492 566 35,000  Level Minneapolis Center
Mon 05:01:49 AM 42.2689 -95.4831 69° East 497 572 35,000  Level Minneapolis Center
Mon 05:02:50 AM 42.3192 -95.3111 68° East 493 567 35,000  Level Minneapolis Center
Mon 05:03:50 AM 42.3694 -95.1397 68° East 491 565 35,000  Level Minneapolis Center
Mon 05:04:50 AM 42.4189 -94.9667 69° East 491 565 35,000  Level Minneapolis Center
Mon 05:05:51 AM 42.4686 -94.7953 68° East 490 564 35,000  Level Minneapolis Center
Mon 05:06:51 AM 42.5181 -94.6231 69° East 490 564 35,000  Level Minneapolis Center
Mon 05:07:51 AM 42.5589 -94.4725 70° East 486 559 35,000  Level Minneapolis Center
Mon 05:08:52 AM 42.6056 -94.3014 70° East 486 559 35,000  Level Minneapolis Center
Mon 05:09:52 AM 42.6028 -94.1192 91° East 485 558 35,000  Level Minneapolis Center
Mon 05:10:52 AM 42.5939 -93.9389 94° East 484 557 35,000  Level Minneapolis Center
Mon 05:11:53 AM 42.5864 -93.7586 93° East 484 557 35,000  Level Minneapolis Center
Mon 05:12:53 AM 42.5767 -93.5781 94° East 483 556 35,000  Level Minneapolis Center
Mon 05:13:53 AM 42.5692 -93.3989 93° East 482 555 35,000  Level Minneapolis Center
Mon 05:14:53 AM 42.5572 -93.1833 94° East 483 556 35,000  Level Minneapolis Center
Mon 05:15:54 AM 42.5486 -93.0042 94° East 482 555 35,000  Level Minneapolis Center
Mon 05:16:54 AM 42.5389 -92.8253 94° East 480 552 35,000  Level Minneapolis Center
Mon 05:17:54 AM 42.5294 -92.6436 94° East 486 559 35,000  Level Minneapolis Center
Mon 05:18:55 AM 42.5178 -92.4600 95° East 491 565 35,000  Level Minneapolis Center
Mon 05:19:55 AM 42.5072 -92.2764 94° East 493 567 35,000  Level Minneapolis Center
Mon 05:20:55 AM 42.4958 -92.0936 95° East 494 568 35,000  Level Minneapolis Center
Mon 05:21:45 AM 42.4861 -91.9447 95° East 497 572 35,000  Level Chicago Center
Mon 05:22:45 AM 42.4750 -91.7617 95° East 498 573 35,000  Level Chicago Center
Mon 05:23:45 AM 42.4628 -91.5792 95° East 498 573 35,000  Level Chicago Center
Mon 05:24:45 AM 42.4497 -91.3972 95° East 497 572 35,000  Level Chicago Center
Mon 05:25:46 AM 42.4347 -91.1828 95° East 488 562 35,000  Level Chicago Center
Mon 05:26:46 AM 42.4225 -91.0042 95° East 484 557 35,000  Level Chicago Center
Mon 05:27:46 AM 42.4092 -90.8286 96° East 478 550 35,000 -496 Level Chicago Center
Mon 05:28:47 AM 42.4053 -90.6522 92° East 473 544 34,000 -992 Descending Chicago Center
Mon 05:29:47 AM 42.4247 -90.4789 81° East 473 544 33,000 -950 Descending Chicago Center
Mon 05:30:47 AM 42.4431 -90.3003 82° East 483 556 32,100 -893 Descending Chicago Center
Mon 05:31:48 AM 42.4611 -90.1208 82° East 485 558 31,200 -1,636 Descending Chicago Center
Mon 05:32:48 AM 42.4786 -89.9419 82° East 483 556 28,800 -2,500 Descending Chicago Center
Mon 05:33:48 AM 42.4958 -89.7528 83° East 468 539 26,200 -2,331 Descending Chicago Center
Mon 05:34:49 AM 42.5128 -89.5850 82° East 453 521 24,100 -2,231 Descending Chicago Center
Mon 05:35:49 AM 42.5275 -89.4239 83° East 435 501 21,700 -2,300 Descending Chicago Center
Mon 05:36:49 AM 42.5417 -89.2703 83° East 416 479 19,500 -1,983 Descending Chicago Center
Mon 05:37:50 AM 42.5544 -89.1244 83° East 396 456 17,700 -2,083 Descending Chicago Center
Mon 05:38:50 AM 42.5222 -88.9883 108° East 386 444 15,300 -2,250 Descending Chicago Center
Mon 05:39:50 AM 42.4831 -88.8578 112° Southeast 379 436 13,200 -2,100 Descending Chicago Center
Mon 05:40:50 AM 42.4456 -88.7342 112° Southeast 364 419 11,100 -1,537 Descending Chicago Center
Mon 05:41:51 AM 42.4011 -88.6275 119° Southeast 338 389 10,100 -1,041 Descending Chicago Center
Mon 05:42:51 AM 42.3392 -88.5611 142° Southeast 292 336 9,000 -1,150 Descending Chicago Center
Mon 05:43:51 AM 42.2769 -88.4928 141° Southeast 278 320 7,800 -1,190 Descending Chicago Center
Mon 05:44:52 AM 42.2175 -88.4264 140° Southeast 278 320 6,600 -1,339 Descending Chicago Center
Mon 05:45:52 AM 42.1597 -88.3647 142° Southeast 271 312 5,100 -1,300 Descending Chicago Center
Mon 05:46:52 AM 42.1036 -88.3033 141° Southeast 263 303 4,000 -545 Descending Chicago Center
Mon 05:47:53 AM 42.0542 -88.2475 140° Southeast 241 277 4,000  Level Chicago Center
Mon 05:48:53 AM 42.0100 -88.2011 142° Southeast 216 249 4,000 -50 Level Chicago Center
Mon 05:49:53 AM 41.9806 -88.1472 126° Southeast 191 220 3,900 -545 Descending Chicago Center
Mon 05:50:54 AM 41.9669 -88.0831 106° East 183 211 2,900 -984 Descending Chicago Center

Login

Don't have an account? Register now (free) for customized features, flight alerts, and more!